Time;durP1;ratioP1;P1;durP2;ratioP2;P2;SDS_P1;SDS_P2;PMS_P1;PMS_P2;Temp;Humidity;BMP_temperature;BMP_pressure;BME280_temperature;BME280_humidity;BME280_pressure;Samples;Min_cycle;Max_cycle;Signal;HPM_P1;HPM_P2
2023/10/30 00:01:03;;;;;;;6.50;2.70;;;;;;;;;;5028575;28;20045;-77
2023/10/30 00:03:29;;;;;;;4.43;2.63;;;;;;;;;;5011411;28;20037;-77
2023/10/30 00:05:55;;;;;;;5.15;2.85;;;;;;;;;;5016528;28;20103;-77
2023/10/30 00:08:22;;;;;;;4.53;2.63;;;;;;;;;;5022837;28;20124;-77
2023/10/30 00:10:47;;;;;;;5.32;3.00;;;;;;;;;;5015296;28;20045;-77
2023/10/30 00:13:13;;;;;;;5.60;3.03;;;;;;;;;;5012454;28;20042;-76
2023/10/30 00:15:38;;;;;;;5.35;2.95;;;;;;;;;;5020274;28;20037;-76
2023/10/30 00:18:04;;;;;;;4.43;2.85;;;;;;;;;;5024188;28;20042;-75
2023/10/30 00:20:29;;;;;;;5.03;2.50;;;;;;;;;;5017290;28;20032;-77
2023/10/30 00:22:54;;;;;;;4.95;2.80;;;;;;;;;;5021938;28;20045;-76
2023/10/30 00:25:21;;;;;;;5.63;2.90;;;;;;;;;;5000311;28;20394;-77
2023/10/30 00:27:46;;;;;;;6.00;2.75;;;;;;;;;;5018760;28;20269;-76
2023/10/30 00:30:11;;;;;;;4.85;2.60;;;;;;;;;;5018277;28;20042;-77
2023/10/30 00:32:37;;;;;;;4.87;2.80;;;;;;;;;;5019477;28;20033;-77
2023/10/30 00:35:02;;;;;;;6.27;2.73;;;;;;;;;;5002460;28;20817;-76
2023/10/30 00:37:27;;;;;;;5.85;2.83;;;;;;;;;;5026142;28;20342;-77
2023/10/30 00:39:53;;;;;;;4.90;2.47;;;;;;;;;;5021504;28;20041;-78
2023/10/30 00:42:18;;;;;;;4.85;2.78;;;;;;;;;;5016134;28;20033;-78
2023/10/30 00:44:43;;;;;;;3.70;2.37;;;;;;;;;;5012851;28;20096;-78
2023/10/30 00:47:08;;;;;;;4.03;2.58;;;;;;;;;;5025764;28;20286;-78
2023/10/30 00:49:34;;;;;;;5.43;2.85;;;;;;;;;;5012877;28;20030;-78
2023/10/30 00:51:59;;;;;;;6.22;2.60;;;;;;;;;;5013006;28;20033;-78
2023/10/30 00:54:24;;;;;;;4.33;2.53;;;;;;;;;;5025563;28;20119;-78
2023/10/30 00:56:49;;;;;;;4.40;2.70;;;;;;;;;;5027195;28;20034;-78
2023/10/30 00:59:15;;;;;;;4.50;2.72;;;;;;;;;;5013820;28;20464;-77
2023/10/30 01:01:40;;;;;;;4.95;2.30;;;;;;;;;;5012968;28;20578;-77
2023/10/30 01:04:06;;;;;;;4.53;2.27;;;;;;;;;;4985992;28;20041;-77
2023/10/30 01:06:32;;;;;;;5.05;2.35;;;;;;;;;;5019851;28;20940;-77
2023/10/30 01:08:57;;;;;;;3.92;2.40;;;;;;;;;;5014366;28;20117;-77
2023/10/30 01:11:22;;;;;;;5.57;2.50;;;;;;;;;;5025189;28;20188;-77
2023/10/30 01:13:48;;;;;;;5.27;2.77;;;;;;;;;;5007851;28;20030;-78
2023/10/30 01:16:13;;;;;;;4.57;2.60;;;;;;;;;;5009920;28;20307;-78
2023/10/30 01:18:38;;;;;;;5.70;2.43;;;;;;;;;;5028545;28;20280;-76
2023/10/30 01:21:12;;;;;;;4.35;2.35;;;;;;;;;;5010958;28;20049;-77
2023/10/30 01:23:38;;;;;;;4.15;2.28;;;;;;;;;;5017727;28;20408;-77
2023/10/30 01:26:03;;;;;;;4.93;2.65;;;;;;;;;;5017196;28;20052;-79
2023/10/30 01:28:29;;;;;;;5.07;2.65;;;;;;;;;;4999750;28;20026;-77
2023/10/30 01:30:55;;;;;;;4.38;2.30;;;;;;;;;;4992521;28;20451;-76
2023/10/30 01:33:21;;;;;;;5.30;2.50;;;;;;;;;;4993122;28;20031;-77
2023/10/30 01:35:46;;;;;;;3.15;2.30;;;;;;;;;;5011148;28;20117;-77
2023/10/30 01:38:12;;;;;;;3.60;2.13;;;;;;;;;;5016611;28;20452;-76
2023/10/30 01:40:37;;;;;;;5.03;2.53;;;;;;;;;;5014279;28;20040;-77
2023/10/30 01:43:08;;;;;;;5.72;2.75;;;;;;;;;;5006873;28;20561;-76
2023/10/30 01:45:34;;;;;;;4.57;2.67;;;;;;;;;;5003706;28;20053;-77
2023/10/30 01:47:59;;;;;;;4.28;2.47;;;;;;;;;;5002640;28;20048;-76
2023/10/30 01:50:24;;;;;;;5.33;2.77;;;;;;;;;;4974672;28;20099;-77
2023/10/30 01:52:50;;;;;;;4.80;2.33;;;;;;;;;;4989699;28;20316;-77
2023/10/30 01:55:15;;;;;;;4.95;2.83;;;;;;;;;;5004132;28;20048;-76
2023/10/30 01:57:40;;;;;;;5.07;2.58;;;;;;;;;;5003283;28;20112;-77
2023/10/30 02:00:06;;;;;;;4.63;2.30;;;;;;;;;;5014507;28;20121;-76
2023/10/30 02:02:31;;;;;;;5.18;2.58;;;;;;;;;;4993476;28;20053;-77
2023/10/30 02:04:57;;;;;;;4.03;2.27;;;;;;;;;;4993880;28;20058;-77
2023/10/30 02:07:22;;;;;;;4.78;2.40;;;;;;;;;;5003890;28;20281;-76
2023/10/30 02:09:47;;;;;;;4.40;2.37;;;;;;;;;;5020349;28;20108;-77
2023/10/30 02:12:12;;;;;;;4.95;2.58;;;;;;;;;;5000387;28;20102;-76
2023/10/30 02:14:38;;;;;;;5.37;2.53;;;;;;;;;;4998450;28;20037;-76
2023/10/30 02:17:04;;;;;;;4.32;2.58;;;;;;;;;;5025543;28;20037;-76
2023/10/30 02:19:29;;;;;;;4.82;2.47;;;;;;;;;;5010319;28;20053;-76
2023/10/30 02:21:55;;;;;;;4.57;2.80;;;;;;;;;;4998340;28;20045;-77
2023/10/30 02:24:20;;;;;;;5.47;2.58;;;;;;;;;;5028315;28;20041;-78
2023/10/30 02:26:49;;;;;;;4.28;2.75;;;;;;;;;;5026967;28;20075;-78
2023/10/30 02:29:14;;;;;;;5.97;2.95;;;;;;;;;;5014636;28;20037;-76
2023/10/30 02:31:39;;;;;;;5.38;2.83;;;;;;;;;;5024938;28;20453;-76
2023/10/30 02:34:05;;;;;;;4.88;2.85;;;;;;;;;;5013840;28;20110;-78
2023/10/30 02:36:30;;;;;;;4.03;2.30;;;;;;;;;;5005611;28;20038;-78
2023/10/30 02:38:55;;;;;;;5.27;2.80;;;;;;;;;;5024894;28;20039;-76
2023/10/30 02:41:21;;;;;;;3.95;2.35;;;;;;;;;;5015249;28;20102;-77
2023/10/30 02:43:46;;;;;;;4.15;2.42;;;;;;;;;;5025362;28;20045;-79
2023/10/30 02:46:11;;;;;;;5.07;2.53;;;;;;;;;;5025890;28;20537;-77
2023/10/30 02:48:37;;;;;;;4.70;2.53;;;;;;;;;;4998856;28;20042;-79
2023/10/30 02:51:02;;;;;;;3.97;2.45;;;;;;;;;;5024112;28;20037;-77
2023/10/30 02:53:28;;;;;;;4.68;2.25;;;;;;;;;;4995325;28;20508;-77
2023/10/30 02:55:53;;;;;;;4.10;2.40;;;;;;;;;;5006177;28;20034;-77
2023/10/30 02:58:18;;;;;;;5.37;2.50;;;;;;;;;;5014738;28;20957;-77
2023/10/30 03:00:44;;;;;;;4.43;2.67;;;;;;;;;;5010189;28;20297;-77
2023/10/30 03:03:09;;;;;;;4.03;2.10;;;;;;;;;;5013069;28;20566;-79
2023/10/30 03:05:35;;;;;;;4.97;2.70;;;;;;;;;;5026332;28;20049;-79
2023/10/30 03:08:01;;;;;;;4.43;2.08;;;;;;;;;;5010644;28;20273;-79
2023/10/30 03:10:26;;;;;;;4.55;2.72;;;;;;;;;;5001823;28;20042;-78
2023/10/30 03:12:51;;;;;;;5.10;2.50;;;;;;;;;;4991005;28;20038;-78
2023/10/30 03:15:16;;;;;;;5.07;2.90;;;;;;;;;;5024092;28;20341;-78
2023/10/30 03:17:42;;;;;;;4.53;2.63;;;;;;;;;;5018435;28;20042;-78
2023/10/30 03:20:08;;;;;;;4.80;2.40;;;;;;;;;;4998745;28;20416;-77
2023/10/30 03:22:33;;;;;;;4.40;2.65;;;;;;;;;;5016681;28;20501;-77
2023/10/30 03:24:59;;;;;;;4.13;2.58;;;;;;;;;;5010436;28;20083;-77
2023/10/30 03:27:24;;;;;;;5.57;2.95;;;;;;;;;;5009573;28;20045;-76
2023/10/30 03:29:49;;;;;;;4.57;2.70;;;;;;;;;;5010710;28;20046;-78
2023/10/30 03:32:15;;;;;;;4.47;2.70;;;;;;;;;;5017174;28;20038;-77
2023/10/30 03:34:40;;;;;;;4.07;2.53;;;;;;;;;;5025458;28;20034;-76
2023/10/30 03:37:05;;;;;;;4.22;3.00;;;;;;;;;;5019730;28;20115;-78
2023/10/30 03:39:30;;;;;;;5.00;2.10;;;;;;;;;;5010693;28;20038;-78
2023/10/30 03:41:56;;;;;;;4.50;2.50;;;;;;;;;;5026588;28;20424;-78
2023/10/30 03:44:24;;;;;;;4.82;2.40;;;;;;;;;;5021254;28;20385;-76
2023/10/30 03:46:50;;;;;;;4.50;2.30;;;;;;;;;;5011623;28;20423;-78
2023/10/30 03:49:15;;;;;;;3.83;2.45;;;;;;;;;;5024796;28;20037;-76
2023/10/30 03:51:40;;;;;;;4.05;2.50;;;;;;;;;;4993925;28;20029;-79
2023/10/30 03:54:05;;;;;;;4.20;2.50;;;;;;;;;;5024853;28;20125;-78
2023/10/30 03:56:31;;;;;;;5.20;2.75;;;;;;;;;;5022233;28;20303;-79
2023/10/30 03:58:56;;;;;;;3.80;2.42;;;;;;;;;;5022004;28;20527;-78
2023/10/30 04:01:21;;;;;;;3.95;2.28;;;;;;;;;;5011605;28;20117;-78
2023/10/30 04:03:47;;;;;;;4.43;2.38;;;;;;;;;;5007010;28;20046;-78
2023/10/30 04:06:12;;;;;;;4.40;2.20;;;;;;;;;;5025213;28;20099;-78
2023/10/30 04:08:39;;;;;;;4.00;2.33;;;;;;;;;;5017035;28;20042;-78
2023/10/30 04:11:09;;;;;;;3.83;2.30;;;;;;;;;;5013223;28;20285;-78
2023/10/30 04:13:34;;;;;;;4.32;2.30;;;;;;;;;;5007925;28;20539;-78
2023/10/30 04:15:59;;;;;;;3.63;2.42;;;;;;;;;;5021213;28;20034;-77
2023/10/30 04:18:25;;;;;;;4.23;2.27;;;;;;;;;;5022794;28;20087;-77
2023/10/30 04:20:51;;;;;;;4.30;2.50;;;;;;;;;;5014712;28;20037;-77
2023/10/30 04:23:16;;;;;;;4.18;2.40;;;;;;;;;;5009214;28;20038;-77
2023/10/30 04:25:41;;;;;;;4.75;3.08;;;;;;;;;;5024956;28;20293;-77
2023/10/30 04:28:06;;;;;;;4.27;2.30;;;;;;;;;;5022546;28;20064;-77
2023/10/30 04:30:32;;;;;;;4.43;2.20;;;;;;;;;;5017850;28;20323;-78
2023/10/30 04:32:58;;;;;;;4.57;2.13;;;;;;;;;;5021451;28;20289;-78
2023/10/30 04:35:23;;;;;;;4.22;2.50;;;;;;;;;;5013756;28;20025;-78
2023/10/30 04:37:48;;;;;;;5.63;2.50;;;;;;;;;;5019214;28;20532;-78
2023/10/30 04:40:13;;;;;;;3.87;2.30;;;;;;;;;;5018851;28;20428;-78
2023/10/30 04:42:39;;;;;;;4.47;2.47;;;;;;;;;;5009740;28;20513;-78
2023/10/30 04:45:04;;;;;;;4.35;2.45;;;;;;;;;;5009686;28;20103;-78
2023/10/30 04:47:29;;;;;;;4.70;2.50;;;;;;;;;;5011407;28;20083;-78
2023/10/30 04:49:55;;;;;;;5.27;2.40;;;;;;;;;;4995313;28;20110;-78
2023/10/30 04:52:20;;;;;;;4.53;2.70;;;;;;;;;;5017478;28;20288;-78
2023/10/30 04:54:45;;;;;;;4.32;2.28;;;;;;;;;;4998341;28;20075;-76
2023/10/30 04:57:11;;;;;;;3.97;2.40;;;;;;;;;;4987708;28;20033;-78
2023/10/30 04:59:43;;;;;;;4.50;2.45;;;;;;;;;;5098967;27;20535;-56
2023/10/30 05:02:08;;;;;;;4.88;2.47;;;;;;;;;;5042010;28;20032;-56
2023/10/30 05:04:33;;;;;;;3.73;2.50;;;;;;;;;;5059317;28;20031;-58
2023/10/30 05:06:58;;;;;;;5.28;2.80;;;;;;;;;;5060140;28;20645;-59
2023/10/30 05:09:24;;;;;;;5.47;2.60;;;;;;;;;;5057688;28;20133;-56
2023/10/30 05:11:49;;;;;;;3.77;2.30;;;;;;;;;;5056024;28;20495;-58
2023/10/30 05:14:15;;;;;;;4.75;2.40;;;;;;;;;;5058356;28;20273;-59
2023/10/30 05:16:40;;;;;;;5.20;2.58;;;;;;;;;;5053115;28;20087;-58
2023/10/30 05:19:05;;;;;;;3.95;2.20;;;;;;;;;;5051820;28;20448;-58
2023/10/30 05:21:31;;;;;;;5.17;2.60;;;;;;;;;;5056223;28;20024;-58
2023/10/30 05:23:56;;;;;;;4.55;2.58;;;;;;;;;;5054433;28;20277;-58
2023/10/30 05:26:21;;;;;;;4.25;2.55;;;;;;;;;;5057674;28;20039;-58
2023/10/30 05:28:47;;;;;;;4.40;2.45;;;;;;;;;;5034077;28;20515;-58
2023/10/30 05:31:12;;;;;;;3.97;2.63;;;;;;;;;;5054003;28;20096;-58
2023/10/30 05:33:37;;;;;;;5.47;2.83;;;;;;;;;;5053665;28;20262;-59
2023/10/30 05:36:03;;;;;;;4.30;2.40;;;;;;;;;;5056413;28;20039;-58
2023/10/30 05:38:28;;;;;;;5.57;2.95;;;;;;;;;;5053819;28;20124;-58
2023/10/30 05:40:53;;;;;;;3.97;2.37;;;;;;;;;;5056377;28;20451;-59
2023/10/30 05:43:19;;;;;;;4.70;2.53;;;;;;;;;;5051342;28;20275;-58
2023/10/30 05:45:45;;;;;;;7.43;2.90;;;;;;;;;;5056993;28;20258;-59
2023/10/30 05:48:10;;;;;;;9.55;3.22;;;;;;;;;;5053263;28;20710;-59
2023/10/30 05:50:35;;;;;;;6.13;2.90;;;;;;;;;;5054721;28;20039;-59
2023/10/30 05:53:01;;;;;;;6.50;2.97;;;;;;;;;;5053391;28;20265;-59
2023/10/30 05:55:26;;;;;;;5.93;2.60;;;;;;;;;;5053945;28;20306;-59
2023/10/30 05:57:51;;;;;;;6.68;2.88;;;;;;;;;;5062700;28;20301;-59
2023/10/30 06:00:17;;;;;;;6.40;2.90;;;;;;;;;;5052094;28;20017;-59
2023/10/30 06:02:42;;;;;;;5.90;3.00;;;;;;;;;;5053864;28;20575;-57
2023/10/30 06:05:08;;;;;;;10.23;3.20;;;;;;;;;;5055719;28;20483;-60
2023/10/30 06:07:34;;;;;;;10.07;3.00;;;;;;;;;;5057882;28;20289;-57
2023/10/30 06:10:00;;;;;;;7.97;2.95;;;;;;;;;;5045772;28;21051;-59
2023/10/30 06:12:25;;;;;;;8.35;3.25;;;;;;;;;;5044495;28;20401;-57
2023/10/30 06:14:50;;;;;;;5.68;3.03;;;;;;;;;;5038136;28;20017;-58
2023/10/30 06:17:15;;;;;;;5.57;2.83;;;;;;;;;;5036769;28;20077;-58
2023/10/30 06:19:41;;;;;;;7.83;3.00;;;;;;;;;;5036431;28;20287;-57
2023/10/30 06:22:06;;;;;;;8.17;3.40;;;;;;;;;;5035988;28;20279;-59
2023/10/30 06:24:31;;;;;;;7.72;3.08;;;;;;;;;;5031396;28;20754;-59
2023/10/30 06:26:56;;;;;;;7.55;3.40;;;;;;;;;;5043139;28;20130;-60
2023/10/30 06:29:22;;;;;;;12.50;3.17;;;;;;;;;;5039517;28;20699;-59
2023/10/30 06:31:47;;;;;;;7.93;3.13;;;;;;;;;;5033927;28;20255;-59
2023/10/30 06:34:13;;;;;;;10.38;3.83;;;;;;;;;;5042004;28;20741;-58
2023/10/30 06:36:39;;;;;;;5.75;3.30;;;;;;;;;;5026993;28;20452;-59
2023/10/30 06:39:04;;;;;;;6.97;3.42;;;;;;;;;;5043157;28;20033;-59
2023/10/30 06:41:29;;;;;;;7.30;3.53;;;;;;;;;;5039979;28;20028;-59
2023/10/30 06:43:55;;;;;;;7.83;3.20;;;;;;;;;;5044571;28;21508;-59
2023/10/30 06:46:20;;;;;;;7.90;3.17;;;;;;;;;;5033873;28;20287;-60
2023/10/30 06:48:45;;;;;;;10.00;3.42;;;;;;;;;;5039843;28;20060;-59
2023/10/30 06:51:10;;;;;;;8.43;3.43;;;;;;;;;;5040334;28;20534;-57
2023/10/30 06:53:36;;;;;;;6.63;2.90;;;;;;;;;;5042945;28;20272;-57
2023/10/30 06:56:01;;;;;;;9.07;3.10;;;;;;;;;;5039943;28;20275;-59
2023/10/30 06:58:26;;;;;;;6.45;3.22;;;;;;;;;;5035579;28;20299;-59
2023/10/30 07:00:51;;;;;;;8.50;3.33;;;;;;;;;;5043792;28;20052;-59
2023/10/30 07:03:17;;;;;;;7.27;3.37;;;;;;;;;;5029731;28;20053;-59
2023/10/30 07:05:42;;;;;;;8.55;3.47;;;;;;;;;;5038205;28;20728;-59
2023/10/30 07:08:07;;;;;;;6.60;3.10;;;;;;;;;;5033112;28;20040;-60
2023/10/30 07:10:33;;;;;;;6.70;3.30;;;;;;;;;;5041112;28;20710;-59
2023/10/30 07:12:58;;;;;;;8.10;3.47;;;;;;;;;;5040813;28;20029;-60
2023/10/30 07:15:26;;;;;;;6.97;3.50;;;;;;;;;;5039511;28;20566;-59
2023/10/30 07:17:54;;;;;;;8.40;3.00;;;;;;;;;;5025916;28;20291;-60
2023/10/30 07:20:19;;;;;;;7.05;2.97;;;;;;;;;;5014888;28;20026;-60
2023/10/30 07:22:44;;;;;;;6.50;3.13;;;;;;;;;;5023486;28;20044;-60
2023/10/30 07:25:09;;;;;;;5.63;2.60;;;;;;;;;;5009020;28;20121;-61
2023/10/30 07:27:35;;;;;;;6.82;2.92;;;;;;;;;;5019411;28;20053;-61
2023/10/30 07:30:02;;;;;;;7.55;3.22;;;;;;;;;;5015836;28;20420;-59
2023/10/30 07:32:27;;;;;;;6.47;3.15;;;;;;;;;;5024238;28;20027;-59
2023/10/30 07:34:52;;;;;;;6.47;2.83;;;;;;;;;;5030112;28;20030;-59
2023/10/30 07:37:18;;;;;;;8.13;3.00;;;;;;;;;;5041256;28;20029;-60
2023/10/30 07:39:44;;;;;;;6.35;3.22;;;;;;;;;;5043944;28;20131;-62
2023/10/30 07:42:09;;;;;;;7.78;3.28;;;;;;;;;;5039744;28;20041;-59
2023/10/30 07:44:35;;;;;;;5.72;2.85;;;;;;;;;;5039139;28;20042;-61
2023/10/30 07:47:01;;;;;;;7.60;3.08;;;;;;;;;;5035613;28;20049;-59
2023/10/30 07:49:26;;;;;;;9.70;2.97;;;;;;;;;;5020802;28;20525;-59
2023/10/30 07:51:52;;;;;;;8.88;3.33;;;;;;;;;;5022926;28;20030;-59
2023/10/30 07:54:17;;;;;;;6.82;3.00;;;;;;;;;;5020425;28;20034;-60
2023/10/30 07:56:43;;;;;;;7.67;3.13;;;;;;;;;;5014791;28;20052;-58
2023/10/30 07:59:08;;;;;;;7.90;3.03;;;;;;;;;;5022001;28;20304;-60
2023/10/30 08:01:34;;;;;;;6.13;2.78;;;;;;;;;;5018512;28;20088;-59
2023/10/30 08:04:00;;;;;;;7.15;3.00;;;;;;;;;;5020962;28;20037;-59
2023/10/30 08:06:25;;;;;;;7.43;2.90;;;;;;;;;;5014850;28;20026;-59
2023/10/30 08:08:52;;;;;;;7.57;2.92;;;;;;;;;;5013141;28;20286;-60
2023/10/30 08:11:17;;;;;;;9.43;3.58;;;;;;;;;;5020343;28;20127;-59
2023/10/30 08:13:42;;;;;;;6.43;3.10;;;;;;;;;;5012616;28;20374;-59
2023/10/30 08:16:09;;;;;;;5.43;2.85;;;;;;;;;;5014737;28;20490;-58
2023/10/30 08:18:34;;;;;;;4.10;2.70;;;;;;;;;;5022895;28;20060;-59
2023/10/30 08:21:00;;;;;;;5.85;2.83;;;;;;;;;;5021973;28;20037;-59
2023/10/30 08:23:25;;;;;;;5.88;2.80;;;;;;;;;;5020810;28;20053;-60
2023/10/30 08:25:50;;;;;;;7.25;2.63;;;;;;;;;;5021536;28;20111;-59
2023/10/30 08:28:16;;;;;;;6.53;2.70;;;;;;;;;;5020296;28;20032;-58
2023/10/30 08:30:41;;;;;;;7.10;2.75;;;;;;;;;;5012947;28;20414;-59
2023/10/30 08:33:06;;;;;;;6.63;2.85;;;;;;;;;;5011796;28;20091;-59
2023/10/30 08:35:35;;;;;;;4.97;2.80;;;;;;;;;;5020969;28;20041;-59
2023/10/30 08:38:00;;;;;;;4.20;2.65;;;;;;;;;;5021676;28;20057;-57
2023/10/30 08:40:25;;;;;;;5.03;2.83;;;;;;;;;;5020855;28;20075;-58
2023/10/30 08:42:50;;;;;;;6.50;2.80;;;;;;;;;;5022657;28;20403;-60
2023/10/30 08:45:16;;;;;;;4.32;2.70;;;;;;;;;;5020241;28;20288;-57
2023/10/30 08:47:41;;;;;;;3.97;2.55;;;;;;;;;;5010248;28;20033;-56
2023/10/30 08:50:07;;;;;;;4.38;2.70;;;;;;;;;;5011978;28;20026;-57
2023/10/30 08:52:32;;;;;;;7.63;2.85;;;;;;;;;;5020749;28;20512;-59
2023/10/30 08:54:57;;;;;;;4.32;2.67;;;;;;;;;;5013558;28;20471;-59
2023/10/30 08:57:23;;;;;;;5.53;2.83;;;;;;;;;;5020965;28;20369;-58
2023/10/30 08:59:48;;;;;;;4.32;2.60;;;;;;;;;;5015616;28;20056;-58
2023/10/30 09:02:13;;;;;;;4.25;2.63;;;;;;;;;;5021445;28;20077;-58
2023/10/30 09:04:38;;;;;;;5.80;2.72;;;;;;;;;;5021405;28;20099;-59
2023/10/30 09:07:04;;;;;;;4.87;2.57;;;;;;;;;;5021306;28;20094;-59
2023/10/30 09:09:29;;;;;;;5.00;2.92;;;;;;;;;;5021068;28;20906;-60
2023/10/30 09:11:55;;;;;;;5.57;2.50;;;;;;;;;;5021794;28;20034;-60
2023/10/30 09:14:20;;;;;;;5.43;2.72;;;;;;;;;;5020713;28;20760;-59
2023/10/30 09:16:45;;;;;;;4.37;2.63;;;;;;;;;;5020968;28;20061;-59
2023/10/30 09:19:10;;;;;;;4.67;2.90;;;;;;;;;;5020464;28;20057;-59
2023/10/30 09:21:36;;;;;;;3.90;2.10;;;;;;;;;;5021566;28;20663;-59
2023/10/30 09:24:02;;;;;;;5.45;2.60;;;;;;;;;;5021150;28;20458;-59
2023/10/30 09:26:27;;;;;;;6.05;2.72;;;;;;;;;;5020879;28;20037;-57
2023/10/30 09:28:54;;;;;;;4.55;2.40;;;;;;;;;;5020945;28;20071;-59
2023/10/30 09:31:20;;;;;;;3.70;2.38;;;;;;;;;;5020387;28;20048;-58
2023/10/30 09:33:45;;;;;;;5.57;2.78;;;;;;;;;;5021761;28;20029;-59
2023/10/30 09:36:10;;;;;;;4.13;2.60;;;;;;;;;;5020446;28;20101;-58
2023/10/30 09:38:35;;;;;;;3.35;2.42;;;;;;;;;;5020514;28;20303;-58
2023/10/30 09:41:04;;;;;;;4.23;2.63;;;;;;;;;;5022890;28;20067;-57
2023/10/30 09:43:29;;;;;;;5.15;2.42;;;;;;;;;;5022277;28;20292;-59
2023/10/30 09:46:00;;;;;;;4.70;3.00;;;;;;;;;;5022838;28;20039;-60
2023/10/30 09:48:28;;;;;;;5.13;2.45;;;;;;;;;;5023478;28;20037;-59
2023/10/30 09:50:53;;;;;;;5.07;2.78;;;;;;;;;;5024435;28;20025;-60
2023/10/30 09:53:19;;;;;;;4.50;2.60;;;;;;;;;;5025584;28;20048;-60
2023/10/30 09:55:44;;;;;;;5.27;2.47;;;;;;;;;;5026125;28;20318;-59
2023/10/30 09:58:09;;;;;;;4.73;2.57;;;;;;;;;;5024079;28;20103;-59
2023/10/30 10:00:35;;;;;;;4.60;2.78;;;;;;;;;;5025671;28;20354;-60
2023/10/30 10:03:02;;;;;;;5.55;2.40;;;;;;;;;;5023675;28;20036;-59
2023/10/30 10:05:27;;;;;;;9.15;3.58;;;;;;;;;;5006295;28;20037;-59
2023/10/30 10:07:52;;;;;;;6.50;3.23;;;;;;;;;;5023793;28;20025;-61
2023/10/30 10:10:19;;;;;;;10.50;4.63;;;;;;;;;;5023623;28;20280;-58
2023/10/30 10:12:44;;;;;;;7.32;3.88;;;;;;;;;;5023004;28;20323;-59
2023/10/30 10:15:09;;;;;;;9.13;4.70;;;;;;;;;;5025085;28;20551;-59
2023/10/30 10:17:48;;;;;;;9.33;3.73;;;;;;;;;;5025843;28;20496;-59
2023/10/30 10:20:13;;;;;;;9.38;3.92;;;;;;;;;;5024689;28;20777;-60
2023/10/30 10:22:39;;;;;;;8.02;3.63;;;;;;;;;;5026263;28;20073;-58
2023/10/30 10:25:18;;;;;;;6.25;3.15;;;;;;;;;;5025907;28;20056;-60
2023/10/30 10:27:43;;;;;;;7.20;3.97;;;;;;;;;;5020991;28;20388;-60
2023/10/30 10:30:09;;;;;;;7.75;3.58;;;;;;;;;;5023132;28;20068;-60
2023/10/30 10:32:35;;;;;;;11.60;3.47;;;;;;;;;;5017046;28;20570;-58
2023/10/30 10:35:05;;;;;;;6.30;3.13;;;;;;;;;;5025883;28;20036;-58
2023/10/30 10:37:31;;;;;;;6.10;3.15;;;;;;;;;;5024695;28;20033;-60
2023/10/30 10:39:56;;;;;;;6.88;3.38;;;;;;;;;;5025186;28;20040;-59
2023/10/30 10:42:22;;;;;;;8.07;3.42;;;;;;;;;;5025605;28;20397;-59
2023/10/30 10:44:49;;;;;;;7.28;3.05;;;;;;;;;;5025410;28;20037;-60
2023/10/30 10:47:15;;;;;;;6.55;3.35;;;;;;;;;;5023070;28;20065;-60
2023/10/30 10:49:40;;;;;;;21.63;4.45;;;;;;;;;;5023669;28;20463;-58
2023/10/30 10:52:08;;;;;;;11.30;3.60;;;;;;;;;;5025073;28;20030;-60
2023/10/30 10:54:35;;;;;;;12.25;3.30;;;;;;;;;;5025367;28;20113;-59
2023/10/30 10:57:00;;;;;;;11.25;3.97;;;;;;;;;;5023575;28;20029;-59
2023/10/30 10:59:28;;;;;;;10.32;3.00;;;;;;;;;;5023453;28;20041;-58
2023/10/30 11:01:54;;;;;;;14.40;3.53;;;;;;;;;;5018625;28;20038;-58
2023/10/30 11:04:19;;;;;;;16.83;3.53;;;;;;;;;;5015502;28;20125;-58
2023/10/30 11:06:45;;;;;;;9.43;3.07;;;;;;;;;;5016177;28;20481;-61
2023/10/30 11:09:18;;;;;;;10.55;3.58;;;;;;;;;;5020200;28;20038;-60
2023/10/30 11:11:43;;;;;;;10.10;3.00;;;;;;;;;;5020232;28;20147;-59
2023/10/30 11:14:09;;;;;;;7.40;3.10;;;;;;;;;;5017178;28;20506;-59
2023/10/30 11:17:03;;;;;;;10.50;3.30;;;;;;;;;;5015357;28;20565;-58
2023/10/30 11:19:29;;;;;;;7.70;2.78;;;;;;;;;;5020170;28;20331;-58
2023/10/30 11:21:54;;;;;;;7.15;2.80;;;;;;;;;;5023982;28;20045;-59
2023/10/30 11:24:38;;;;;;;9.00;2.67;;;;;;;;;;5039751;28;20111;-59
2023/10/30 11:27:22;;;;;;;5.90;2.20;;;;;;;;;;5038088;28;20029;-56
2023/10/30 11:29:54;;;;;;;7.20;2.65;;;;;;;;;;5033252;28;20037;-57
2023/10/30 11:32:19;;;;;;;6.03;2.38;;;;;;;;;;5028194;28;20041;-57
2023/10/30 11:34:44;;;;;;;6.15;1.98;;;;;;;;;;5021676;28;20034;-58
2023/10/30 11:37:11;;;;;;;5.60;2.20;;;;;;;;;;5029938;28;20054;-59
2023/10/30 11:39:37;;;;;;;7.15;2.03;;;;;;;;;;5028157;28;20072;-58
2023/10/30 11:42:04;;;;;;;4.18;2.15;;;;;;;;;;5023583;28;20029;-58
2023/10/30 11:44:32;;;;;;;5.82;2.20;;;;;;;;;;5036567;28;20061;-60
2023/10/30 11:46:57;;;;;;;6.95;2.38;;;;;;;;;;5038496;28;20034;-59
2023/10/30 11:49:28;;;;;;;6.30;1.85;;;;;;;;;;5035483;28;20801;-59
2023/10/30 11:51:54;;;;;;;5.28;2.20;;;;;;;;;;5023842;28;20409;-58
2023/10/30 11:54:23;;;;;;;4.55;2.00;;;;;;;;;;5036477;28;20122;-58
2023/10/30 11:56:49;;;;;;;5.75;1.90;;;;;;;;;;5032437;28;20279;-60
2023/10/30 11:59:14;;;;;;;6.40;1.90;;;;;;;;;;5033845;28;20053;-59
2023/10/30 12:01:40;;;;;;;5.35;2.38;;;;;;;;;;5021485;28;20042;-61
2023/10/30 12:04:05;;;;;;;5.75;2.35;;;;;;;;;;5023327;28;20106;-60
2023/10/30 12:06:31;;;;;;;6.75;2.40;;;;;;;;;;5018836;28;20515;-59
2023/10/30 12:08:56;;;;;;;6.43;2.33;;;;;;;;;;5016209;28;20045;-60
2023/10/30 12:11:22;;;;;;;5.72;2.08;;;;;;;;;;5014211;28;20026;-59
2023/10/30 12:13:47;;;;;;;7.25;2.10;;;;;;;;;;5022761;28;20033;-58
2023/10/30 12:16:13;;;;;;;5.55;2.25;;;;;;;;;;5020234;28;20048;-59
2023/10/30 12:18:38;;;;;;;5.57;1.83;;;;;;;;;;5029419;28;20096;-60
2023/10/30 12:21:04;;;;;;;7.18;2.00;;;;;;;;;;5022483;28;20327;-61
2023/10/30 12:23:30;;;;;;;5.60;2.08;;;;;;;;;;5004777;28;20080;-60
2023/10/30 12:26:05;;;;;;;3.22;1.70;;;;;;;;;;5034652;28;20464;-58
2023/10/30 12:28:34;;;;;;;4.95;2.00;;;;;;;;;;5041827;28;20044;-61
2023/10/30 12:31:14;;;;;;;3.95;2.10;;;;;;;;;;5033745;28;20029;-59
2023/10/30 12:33:39;;;;;;;5.93;2.25;;;;;;;;;;5032751;28;20047;-60
2023/10/30 12:36:05;;;;;;;12.20;2.20;;;;;;;;;;5025372;28;20025;-60
2023/10/30 12:38:30;;;;;;;4.82;2.03;;;;;;;;;;5024211;28;20048;-58
2023/10/30 12:40:55;;;;;;;3.33;1.90;;;;;;;;;;5043083;28;20481;-60
2023/10/30 12:43:21;;;;;;;4.72;1.90;;;;;;;;;;5041501;28;20029;-61
2023/10/30 12:45:46;;;;;;;2.95;1.73;;;;;;;;;;5042587;28;20482;-60
2023/10/30 12:48:12;;;;;;;4.50;1.90;;;;;;;;;;5022420;28;20448;-59
2023/10/30 12:50:37;;;;;;;5.27;2.07;;;;;;;;;;5041971;28;20460;-61
2023/10/30 12:53:02;;;;;;;3.87;1.30;;;;;;;;;;5024576;28;20308;-60
2023/10/30 12:55:27;;;;;;;5.10;1.80;;;;;;;;;;5003844;28;20276;-59
2023/10/30 12:57:53;;;;;;;3.57;1.83;;;;;;;;;;5020789;28;20827;-59
2023/10/30 13:00:18;;;;;;;4.32;1.80;;;;;;;;;;5022291;28;20874;-61
2023/10/30 13:02:43;;;;;;;5.47;2.15;;;;;;;;;;5028087;28;20140;-59
2023/10/30 13:05:11;;;;;;;4.70;1.73;;;;;;;;;;5036756;28;20049;-58
2023/10/30 13:07:37;;;;;;;4.00;1.50;;;;;;;;;;5039722;28;20279;-58
2023/10/30 13:10:02;;;;;;;3.65;1.52;;;;;;;;;;5026690;28;20584;-59
2023/10/30 13:12:28;;;;;;;6.85;1.90;;;;;;;;;;5015946;28;20092;-59
2023/10/30 13:14:54;;;;;;;3.88;1.63;;;;;;;;;;4982924;28;20121;-60
2023/10/30 13:17:19;;;;;;;4.63;1.77;;;;;;;;;;5017704;28;20124;-58
2023/10/30 13:19:44;;;;;;;3.78;1.42;;;;;;;;;;5016506;28;20049;-60
2023/10/30 13:22:10;;;;;;;4.35;1.90;;;;;;;;;;5036061;28;20033;-58
2023/10/30 13:24:35;;;;;;;3.30;1.40;;;;;;;;;;5039234;28;20470;-58
2023/10/30 13:27:00;;;;;;;6.07;1.70;;;;;;;;;;5018172;28;20034;-59
2023/10/30 13:29:27;;;;;;;4.40;1.80;;;;;;;;;;5020385;28;20162;-61
2023/10/30 13:31:52;;;;;;;4.05;1.80;;;;;;;;;;5022757;28;20349;-61
2023/10/30 13:34:18;;;;;;;4.00;1.60;;;;;;;;;;5017989;28;20042;-58
2023/10/30 13:36:44;;;;;;;3.70;1.70;;;;;;;;;;5041805;28;20045;-60
2023/10/30 13:39:09;;;;;;;3.00;1.65;;;;;;;;;;5022937;28;20417;-62
2023/10/30 13:41:34;;;;;;;3.00;1.40;;;;;;;;;;5024180;28;20033;-61
2023/10/30 13:43:59;;;;;;;3.87;1.60;;;;;;;;;;5023061;28;20801;-61
2023/10/30 13:46:25;;;;;;;2.85;1.30;;;;;;;;;;5024325;28;20505;-61
2023/10/30 13:48:50;;;;;;;4.43;1.70;;;;;;;;;;5022617;28;20178;-60
2023/10/30 13:51:15;;;;;;;4.97;1.35;;;;;;;;;;5032426;28;20386;-62
2023/10/30 13:53:40;;;;;;;4.80;1.70;;;;;;;;;;5020594;28;20064;-60
2023/10/30 13:56:06;;;;;;;7.27;1.63;;;;;;;;;;5025114;28;20280;-60
2023/10/30 13:58:31;;;;;;;4.10;1.35;;;;;;;;;;5023664;28;20529;-60
2023/10/30 14:00:56;;;;;;;3.42;1.63;;;;;;;;;;5024304;28;20045;-58
2023/10/30 14:03:22;;;;;;;3.03;1.30;;;;;;;;;;5018730;28;20034;-59
2023/10/30 14:05:47;;;;;;;4.17;1.70;;;;;;;;;;5003389;28;20307;-57
2023/10/30 14:08:13;;;;;;;4.15;1.40;;;;;;;;;;5018336;28;20719;-59
2023/10/30 14:10:38;;;;;;;5.13;1.92;;;;;;;;;;5024807;28;20045;-61
2023/10/30 14:13:03;;;;;;;3.57;1.90;;;;;;;;;;5017982;28;20201;-59
2023/10/30 14:15:29;;;;;;;4.00;1.35;;;;;;;;;;5042778;28;20041;-59
2023/10/30 14:17:54;;;;;;;3.97;1.27;;;;;;;;;;5025349;28;20107;-60
2023/10/30 14:20:19;;;;;;;6.30;1.80;;;;;;;;;;5045328;28;20052;-58
2023/10/30 14:22:44;;;;;;;5.10;2.00;;;;;;;;;;5020441;28;20049;-58
2023/10/30 14:25:09;;;;;;;6.10;1.97;;;;;;;;;;5041493;28;20291;-59
2023/10/30 14:27:35;;;;;;;4.83;1.80;;;;;;;;;;5041624;28;20334;-60
2023/10/30 14:30:00;;;;;;;6.17;1.70;;;;;;;;;;5044449;28;20353;-59
2023/10/30 14:32:25;;;;;;;5.90;1.67;;;;;;;;;;5024145;28;20279;-57
2023/10/30 14:34:51;;;;;;;6.55;1.60;;;;;;;;;;5044809;28;20424;-57